Time,TemperatureF,DewpointF,PressureIn,WindDirection,WindDirectionDegrees,WindSpeedMPH,WindSpeedGustMPH,Humidity,HourlyPrecipIn,Conditions,Clouds,dailyrainin,SoftwareType,DateUTC
2013-02-14 00:00:00,24.0,22.8,29.86,North,349,0.0,0.0,95,0.00,CLR,,0.00,WeatherDisplay:10.37,2013-02-14 05:00:00,
2013-02-14 00:05:00,24.0,22.8,29.87,North,349,0.0,0.0,95,0.00,CLR,CLR,0.00,WeatherDisplay:10.37,2013-02-14 05:05:00,
2013-02-14 00:10:00,24.0,22.8,29.87,North,349,0.0,0.0,95,0.00,CLR,CLR,0.00,WeatherDisplay:10.37,2013-02-14 05:10:00,
2013-02-14 00:15:00,23.9,22.7,29.87,North,349,0.0,4.0,95,0.00,CLR,CLR,0.00,WeatherDisplay:10.37,2013-02-14 05:15:00,
2013-02-14 00:20:00,23.9,22.7,29.86,North,349,1.5,2.3,95,0.00,CLR,,0.00,WeatherDisplay:10.37,2013-02-14 05:20:00,
2013-02-14 00:25:00,23.9,22.7,29.86,SW,231,1.7,3.5,95,0.00,CLR,,0.00,WeatherDisplay:10.37,2013-02-14 05:25:00,
2013-02-14 00:30:00,23.9,22.7,29.86,West,279,1.0,3.0,95,0.00,CLR,CLR,0.00,WeatherDisplay:10.37,2013-02-14 05:30:00,
2013-02-14 00:35:00,23.9,22.7,29.86,SW,229,1.0,3.0,95,0.00,CLR,CLR,0.00,WeatherDisplay:10.37,2013-02-14 05:35:00,
2013-02-14 00:40:00,23.9,22.7,29.86,SW,229,1.0,3.0,95,0.00,CLR,CLR,0.00,WeatherDisplay:10.37,2013-02-14 05:40:00,
2013-02-14 00:45:00,24.0,22.8,29.87,SW,229,1.0,4.0,95,0.00,CLR,CLR,0.00,WeatherDisplay:10.37,2013-02-14 05:45:00,
2013-02-14 00:50:00,24.1,22.9,29.87,SW,229,2.0,3.0,95,0.00,CLR,CLR,0.00,WeatherDisplay:10.37,2013-02-14 05:50:00,
2013-02-14 00:55:00,24.2,22.9,29.87,SW,229,1.0,3.0,95,0.00,CLR,CLR,0.00,WeatherDisplay:10.37,2013-02-14 05:55:00,
2013-02-14 01:00:00,24.2,23.0,29.87,SW,227,2.0,5.0,95,0.00,CLR,CLR,0.00,WeatherDisplay:10.37,2013-02-14 06:00:00,
2013-02-14 01:05:00,24.4,23.4,29.87,SW,215,2.3,3.5,96,0.00,SCT,,0.00,WeatherDisplay:10.37,2013-02-14 06:05:00,
2013-02-14 01:10:00,24.5,23.5,29.87,SSW,212,2.0,6.0,96,0.00,SCT,SCT,0.00,WeatherDisplay:10.37,2013-02-14 06:10:00,
2013-02-14 01:15:00,24.6,23.6,29.87,SSW,207,2.8,3.5,96,0.00,SCT,,0.00,WeatherDisplay:10.37,2013-02-14 06:15:00,
2013-02-14 01:20:00,24.7,23.5,29.87,SSW,207,0.7,3.5,95,0.00,SCT,,0.00,WeatherDisplay:10.37,2013-02-14 06:20:00,
2013-02-14 01:25:00,24.7,23.5,29.87,SSW,207,2.0,4.0,95,0.00,SCT,SCT,0.00,WeatherDisplay:10.37,2013-02-14 06:25:00,
2013-02-14 01:30:00,24.8,23.6,29.87,SSW,207,2.9,5.0,95,0.00,SCT,,0.00,WeatherDisplay:10.37,2013-02-14 06:30:00,
2013-02-14 01:35:00,24.8,23.6,29.87,SSW,207,2.0,6.0,95,0.00,SCT,SCT,0.00,WeatherDisplay:10.37,2013-02-14 06:35:00,
2013-02-14 01:40:00,24.8,23.6,29.87,SSW,205,1.1,3.5,95,0.00,SCT,,0.00,WeatherDisplay:10.37,2013-02-14 06:40:00,
2013-02-14 01:45:00,24.8,23.6,29.87,SSW,205,1.0,6.0,95,0.00,SCT,SCT,0.00,WeatherDisplay:10.37,2013-02-14 06:45:00,
2013-02-14 01:50:00,24.8,23.6,29.88,SSW,205,2.0,5.0,95,0.00,SCT,SCT,0.00,WeatherDisplay:10.37,2013-02-14 06:50:00,
2013-02-14 01:55:00,24.8,23.6,29.87,SSW,205,2.0,8.0,95,0.00,SCT,SCT,0.00,WeatherDisplay:10.37,2013-02-14 06:55:00,
2013-02-14 02:00:00,24.8,23.6,29.87,SSW,193,1.8,3.5,95,0.00,SCT,,0.00,WeatherDisplay:10.37,2013-02-14 07:00:00,
2013-02-14 02:05:00,24.8,23.6,29.88,SSW,193,2.0,4.0,95,0.00,SCT,SCT,0.00,WeatherDisplay:10.37,2013-02-14 07:05:00,
2013-02-14 02:10:00,24.8,23.6,29.88,SSW,194,2.0,5.0,95,0.00,SCT,SCT,0.00,WeatherDisplay:10.37,2013-02-14 07:10:00,
2013-02-14 02:15:00,24.8,23.6,29.88,SSW,194,2.0,5.0,95,0.00,SCT,SCT,0.00,WeatherDisplay:10.37,2013-02-14 07:15:00,
2013-02-14 02:20:00,24.8,23.6,29.88,SSW,195,1.0,4.0,95,0.00,SCT,SCT,0.00,WeatherDisplay:10.37,2013-02-14 07:20:00,
2013-02-14 02:25:00,24.8,23.6,29.88,SSW,195,1.0,3.0,95,0.00,SCT,SCT,0.00,WeatherDisplay:10.37,2013-02-14 07:25:00,
2013-02-14 02:30:00,24.8,23.6,29.88,SSW,195,1.0,6.0,95,0.00,SCT,SCT,0.00,WeatherDisplay:10.37,2013-02-14 07:30:00,
2013-02-14 02:35:00,24.7,23.5,29.88,SSW,195,1.0,4.0,95,0.00,SCT,SCT,0.00,WeatherDisplay:10.37,2013-02-14 07:35:00,
2013-02-14 02:40:00,24.6,23.1,29.88,SSW,195,2.2,3.5,94,0.00,SCT,,0.00,WeatherDisplay:10.37,2013-02-14 07:40:00,
2013-02-14 02:45:00,24.6,23.1,29.88,SSW,195,0.0,4.0,94,0.00,SCT,SCT,0.00,WeatherDisplay:10.37,2013-02-14 07:45:00,
2013-02-14 02:50:00,24.5,23.0,29.88,SSW,195,1.4,3.5,94,0.00,SCT,,0.00,WeatherDisplay:10.37,2013-02-14 07:50:00,
2013-02-14 02:55:00,24.5,23.0,29.88,SSW,195,2.0,5.0,94,0.00,SCT,SCT,0.00,WeatherDisplay:10.37,2013-02-14 07:55:00,
2013-02-14 03:00:00,24.4,22.9,29.88,SSW,195,2.0,3.0,94,0.00,SCT,SCT,0.00,WeatherDisplay:10.37,2013-02-14 08:00:00,
2013-02-14 03:05:00,24.4,23.2,29.88,SSW,195,2.0,3.0,95,0.00,FEW,FEW,0.00,WeatherDisplay:10.37,2013-02-14 08:05:00,
2013-02-14 03:10:00,24.4,23.2,29.88,SSW,195,2.0,4.0,95,0.00,FEW,FEW,0.00,WeatherDisplay:10.37,2013-02-14 08:10:00,
2013-02-14 03:15:00,24.5,23.2,29.88,SSW,195,2.0,4.0,95,0.00,FEW,FEW,0.00,WeatherDisplay:10.37,2013-02-14 08:15:00,
2013-02-14 03:20:00,24.5,23.2,29.88,SSW,195,2.0,4.0,95,0.00,FEW,FEW,0.00,WeatherDisplay:10.37,2013-02-14 08:20:00,
2013-02-14 03:25:00,24.5,23.3,29.88,SSW,195,3.0,5.0,95,0.00,FEW,FEW,0.00,WeatherDisplay:10.37,2013-02-14 08:25:00,
2013-02-14 03:30:00,24.5,23.3,29.88,SSW,195,2.0,5.0,95,0.00,FEW,FEW,0.00,WeatherDisplay:10.37,2013-02-14 08:30:00,
2013-02-14 03:35:00,24.6,23.4,29.88,SSW,194,2.0,5.0,95,0.00,FEW,FEW,0.00,WeatherDisplay:10.37,2013-02-14 08:35:00,
2013-02-14 03:40:00,24.7,23.5,29.88,SSW,194,2.0,4.0,95,0.00,FEW,FEW,0.00,WeatherDisplay:10.37,2013-02-14 08:40:00,
2013-02-14 03:45:00,24.7,23.5,29.88,SSW,194,1.0,5.0,95,0.00,FEW,FEW,0.00,WeatherDisplay:10.37,2013-02-14 08:45:00,
2013-02-14 03:50:00,24.8,23.6,29.88,SSW,194,1.0,5.0,95,0.00,FEW,FEW,0.00,WeatherDisplay:10.37,2013-02-14 08:50:00,
2013-02-14 03:55:00,24.9,23.6,29.88,SSW,194,2.0,5.0,95,0.00,FEW,FEW,0.00,WeatherDisplay:10.37,2013-02-14 08:55:00,
2013-02-14 04:00:00,24.9,23.7,29.87,SSW,193,2.0,4.0,95,0.00,FEW,FEW,0.00,WeatherDisplay:10.37,2013-02-14 09:00:00,
2013-02-14 04:05:00,24.9,23.7,29.88,SSW,193,2.0,4.0,95,0.00,CLR,CLR,0.00,WeatherDisplay:10.37,2013-02-14 09:05:00,
2013-02-14 04:10:00,25.0,23.8,29.88,SSW,192,2.0,4.0,95,0.00,CLR,CLR,0.00,WeatherDisplay:10.37,2013-02-14 09:10:00,
2013-02-14 04:15:00,25.1,23.9,29.88,SSW,192,2.0,5.0,95,0.00,CLR,CLR,0.00,WeatherDisplay:10.37,2013-02-14 09:15:00,
2013-02-14 04:20:00,25.2,24.0,29.88,SSW,192,2.0,4.0,95,0.00,CLR,CLR,0.00,WeatherDisplay:10.37,2013-02-14 09:20:00,
2013-02-14 04:25:00,25.3,24.1,29.88,SSW,192,2.0,5.0,95,0.00,CLR,CLR,0.00,WeatherDisplay:10.37,2013-02-14 09:25:00,
2013-02-14 04:30:00,25.3,24.1,29.88,South,191,2.0,5.0,95,0.00,CLR,CLR,0.00,WeatherDisplay:10.37,2013-02-14 09:30:00,
2013-02-14 04:35:00,25.4,24.2,29.88,South,175,2.1,7.0,95,0.00,CLR,,0.00,WeatherDisplay:10.37,2013-02-14 09:35:00,
2013-02-14 04:40:00,25.5,24.3,29.88,South,176,1.0,2.3,95,0.00,CLR,,0.00,WeatherDisplay:10.37,2013-02-14 09:40:00,
2013-02-14 04:45:00,25.6,24.4,29.88,South,176,5.0,5.8,95,0.00,CLR,,0.00,WeatherDisplay:10.37,2013-02-14 09:45:00,
2013-02-14 04:50:00,25.6,24.4,29.88,South,175,2.3,3.5,95,0.00,CLR,,0.00,WeatherDisplay:10.37,2013-02-14 09:50:00,
2013-02-14 04:55:00,25.6,24.4,29.88,SSW,193,3.9,6.9,95,0.00,CLR,,0.00,WeatherDisplay:10.37,2013-02-14 09:55:00,
2013-02-14 05:00:00,25.6,24.4,29.88,South,186,3.1,5.8,95,0.00,CLR,,0.00,WeatherDisplay:10.37,2013-02-14 10:00:00,
2013-02-14 05:05:00,25.6,24.4,29.88,SSW,193,4.3,8.1,95,0.00,CLR,,0.00,WeatherDisplay:10.37,2013-02-14 10:05:00,
2013-02-14 05:10:00,25.7,24.5,29.88,South,183,5.0,8.0,95,0.00,CLR,CLR,0.00,WeatherDisplay:10.37,2013-02-14 10:10:00,
2013-02-14 05:15:00,25.8,24.6,29.88,South,177,3.9,5.8,95,0.00,CLR,,0.00,WeatherDisplay:10.37,2013-02-14 10:15:00,
2013-02-14 05:20:00,25.9,24.7,29.88,SW,222,3.5,4.6,95,0.00,CLR,,0.00,WeatherDisplay:10.37,2013-02-14 10:20:00,
2013-02-14 05:25:00,26.0,24.8,29.88,South,171,3.1,8.0,95,0.00,CLR,,0.00,WeatherDisplay:10.37,2013-02-14 10:25:00,
2013-02-14 05:30:00,26.1,24.9,29.88,SSW,200,4.3,9.2,95,0.00,CLR,,0.00,WeatherDisplay:10.37,2013-02-14 10:30:00,
2013-02-14 05:35:00,26.1,24.6,29.88,South,188,4.9,5.8,94,0.00,CLR,,0.00,WeatherDisplay:10.37,2013-02-14 10:35:00,
2013-02-14 05:40:00,26.2,24.7,29.88,North,360,5.1,6.9,94,0.00,CLR,,0.00,WeatherDisplay:10.37,2013-02-14 10:40:00,
2013-02-14 05:45:00,26.3,24.8,29.89,South,175,3.3,5.8,94,0.00,CLR,,0.00,WeatherDisplay:10.37,2013-02-14 10:45:00,
2013-02-14 05:50:00,26.3,24.8,29.89,South,183,3.8,5.8,94,0.00,CLR,,0.00,WeatherDisplay:10.37,2013-02-14 10:50:00,
2013-02-14 05:55:00,26.4,24.9,29.89,South,185,5.4,8.1,94,0.00,CLR,,0.00,WeatherDisplay:10.37,2013-02-14 10:55:00,
2013-02-14 06:00:00,26.5,25.0,29.89,South,182,4.8,5.8,94,0.00,CLR,,0.00,WeatherDisplay:10.37,2013-02-14 11:00:00,
2013-02-14 06:05:00,26.7,25.2,29.89,SSE,163,3.3,6.9,94,0.00,BKN,,0.00,WeatherDisplay:10.37,2013-02-14 11:05:00,
2013-02-14 06:10:00,26.7,25.2,29.89,SE,142,6.0,8.1,94,0.00,BKN,,0.00,WeatherDisplay:10.37,2013-02-14 11:10:00,
2013-02-14 06:15:00,26.9,25.4,29.89,South,169,4.1,7.0,94,0.00,BKN,,0.00,WeatherDisplay:10.37,2013-02-14 11:15:00,
2013-02-14 06:20:00,27.1,25.6,29.89,South,172,4.7,6.9,94,0.00,BKN,,0.00,WeatherDisplay:10.37,2013-02-14 11:20:00,
2013-02-14 06:25:00,27.1,25.6,29.89,South,178,3.0,10.0,94,0.00,BKN,BKN,0.00,WeatherDisplay:10.37,2013-02-14 11:25:00,
2013-02-14 06:30:00,27.2,25.8,29.89,SSE,154,5.0,9.0,94,0.00,BKN,BKN,0.00,WeatherDisplay:10.37,2013-02-14 11:30:00,
2013-02-14 06:35:00,27.4,25.9,29.89,North,360,4.2,8.1,94,0.00,BKN,,0.00,WeatherDisplay:10.37,2013-02-14 11:35:00,
2013-02-14 06:40:00,27.6,26.1,29.89,South,171,4.0,5.8,94,0.00,BKN,,0.00,WeatherDisplay:10.37,2013-02-14 11:40:00,
2013-02-14 06:45:00,27.6,26.1,29.89,South,179,6.7,11.5,94,0.00,BKN,,0.00,WeatherDisplay:10.37,2013-02-14 11:45:00,
2013-02-14 06:50:00,27.8,26.3,29.89,North,360,4.9,8.1,94,0.00,BKN,,0.00,WeatherDisplay:10.37,2013-02-14 11:50:00,
2013-02-14 06:55:00,28.0,26.5,29.89,North,360,3.5,5.8,94,0.00,BKN,,0.00,WeatherDisplay:10.37,2013-02-14 11:55:00,
2013-02-14 07:00:00,28.1,26.6,29.90,South,184,5.1,9.2,94,0.00,BKN,,0.00,WeatherDisplay:10.37,2013-02-14 12:00:00,
2013-02-14 07:05:00,28.3,26.8,29.90,North,360,4.4,7.0,94,0.00,BKN,,0.00,WeatherDisplay:10.37,2013-02-14 12:05:00,
2013-02-14 07:10:00,28.5,27.0,29.90,NNW,343,5.0,12.0,94,0.00,BKN,BKN,0.00,WeatherDisplay:10.37,2013-02-14 12:10:00,
2013-02-14 07:15:00,28.6,27.1,29.90,SSW,207,5.1,6.9,94,0.00,BKN,,0.00,WeatherDisplay:10.37,2013-02-14 12:15:00,
2013-02-14 07:20:00,28.7,26.9,29.90,North,360,4.4,6.9,93,0.00,BKN,,0.00,WeatherDisplay:10.37,2013-02-14 12:20:00,
2013-02-14 07:25:00,28.8,27.3,29.90,North,360,2.7,5.8,94,0.00,BKN,,0.00,WeatherDisplay:10.37,2013-02-14 12:25:00,
2013-02-14 07:30:00,28.9,27.4,29.90,North,360,3.8,6.9,94,0.00,BKN,,0.00,WeatherDisplay:10.37,2013-02-14 12:30:00,
2013-02-14 07:35:00,29.0,27.5,29.90,North,360,4.1,5.8,94,0.00,BKN,,0.00,WeatherDisplay:10.37,2013-02-14 12:35:00,
2013-02-14 07:40:00,29.1,27.3,29.90,North,360,4.9,8.1,93,0.00,BKN,,0.00,WeatherDisplay:10.37,2013-02-14 12:40:00,
2013-02-14 07:45:00,29.2,27.4,29.90,North,360,2.6,4.0,93,0.00,BKN,,0.00,WeatherDisplay:10.37,2013-02-14 12:45:00,
2013-02-14 07:50:00,29.2,27.4,29.90,North,360,2.4,5.0,93,0.00,BKN,,0.00,WeatherDisplay:10.37,2013-02-14 12:50:00,
2013-02-14 07:55:00,29.3,27.5,29.91,North,360,2.8,6.0,93,0.00,BKN,,0.00,WeatherDisplay:10.37,2013-02-14 12:55:00,
2013-02-14 08:00:00,29.4,27.6,29.91,North,360,5.6,10.4,93,0.00,BKN,,0.00,WeatherDisplay:10.37,2013-02-14 13:00:00,
2013-02-14 08:05:00,29.5,28.0,29.91,North,360,4.7,5.8,94,0.00,OVC,,0.00,WeatherDisplay:10.37,2013-02-14 13:05:00,
2013-02-14 08:10:00,29.6,28.1,29.91,North,360,5.0,8.1,94,0.00,OVC,,0.00,WeatherDisplay:10.37,2013-02-14 13:10:00,
2013-02-14 08:15:00,29.7,28.2,29.91,North,360,4.4,8.1,94,0.00,OVC,,0.00,WeatherDisplay:10.37,2013-02-14 13:15:00,
2013-02-14 08:20:00,29.8,28.0,29.91,North,360,4.7,8.1,93,0.00,OVC,,0.00,WeatherDisplay:10.37,2013-02-14 13:20:00,
2013-02-14 08:25:00,30.0,28.5,29.91,North,360,2.2,5.8,94,0.00,OVC,,0.00,WeatherDisplay:10.37,2013-02-14 13:25:00,
2013-02-14 08:30:00,30.1,28.6,29.91,North,360,3.5,6.9,94,0.00,OVC,,0.00,WeatherDisplay:10.37,2013-02-14 13:30:00,
2013-02-14 08:35:00,30.2,28.7,29.91,North,360,2.5,3.5,94,0.00,OVC,,0.00,WeatherDisplay:10.37,2013-02-14 13:35:00,
2013-02-14 08:40:00,30.4,28.9,29.91,North,360,5.3,10.4,94,0.00,OVC,,0.00,WeatherDisplay:10.37,2013-02-14 13:40:00,
2013-02-14 08:45:00,30.6,29.1,29.90,North,360,5.2,8.1,94,0.00,OVC,,0.00,WeatherDisplay:10.37,2013-02-14 13:45:00,
2013-02-14 08:50:00,30.8,29.3,29.90,North,360,4.2,8.1,94,0.00,OVC,,0.00,WeatherDisplay:10.37,2013-02-14 13:50:00,
2013-02-14 08:55:00,31.0,29.5,29.90,North,360,3.8,4.6,94,0.00,OVC,,0.00,WeatherDisplay:10.37,2013-02-14 13:55:00,
2013-02-14 09:00:00,31.2,29.7,29.90,North,360,5.6,8.1,94,0.00,OVC,,0.00,WeatherDisplay:10.37,2013-02-14 14:00:00,
2013-02-14 09:05:00,31.3,29.8,29.90,North,360,5.1,8.1,94,0.00,OVC,,0.00,WeatherDisplay:10.37,2013-02-14 14:05:00,
2013-02-14 09:10:00,31.5,30.0,29.90,North,360,6.0,9.2,94,0.00,OVC,,0.00,WeatherDisplay:10.37,2013-02-14 14:10:00,
2013-02-14 09:15:00,31.6,29.8,29.90,North,360,3.9,4.6,93,0.00,OVC,,0.00,WeatherDisplay:10.37,2013-02-14 14:15:00,
2013-02-14 09:20:00,31.8,30.0,29.90,North,360,6.0,9.0,93,0.01,RA,RA,0.01,WeatherDisplay:10.37,2013-02-14 14:20:00,
2013-02-14 09:25:00,31.9,30.1,29.90,North,360,5.0,9.0,93,0.00,RA,RA,0.01,WeatherDisplay:10.37,2013-02-14 14:25:00,
2013-02-14 09:30:00,32.1,30.3,29.90,North,360,2.6,9.2,93,0.01,OVC,,0.01,WeatherDisplay:10.37,2013-02-14 14:30:00,
2013-02-14 09:35:00,32.3,30.5,29.90,North,360,2.4,4.6,93,0.01,OVC,,0.01,WeatherDisplay:10.37,2013-02-14 14:35:00,
2013-02-14 09:40:00,32.4,30.6,29.90,North,360,6.0,11.5,93,0.01,OVC,,0.01,WeatherDisplay:10.37,2013-02-14 14:40:00,
2013-02-14 09:45:00,32.6,30.8,29.90,North,360,3.0,8.0,93,0.00,OVC,OVC,0.01,WeatherDisplay:10.37,2013-02-14 14:45:00,
2013-02-14 09:50:00,32.7,30.9,29.90,North,360,5.7,7.0,93,0.01,OVC,,0.01,WeatherDisplay:10.37,2013-02-14 14:50:00,
2013-02-14 09:55:00,32.9,31.1,29.90,North,360,4.2,4.6,93,0.01,OVC,,0.01,WeatherDisplay:10.37,2013-02-14 14:55:00,
2013-02-14 10:00:00,33.0,31.2,29.90,North,360,3.3,8.1,93,0.01,OVC,,0.01,WeatherDisplay:10.37,2013-02-14 15:00:00,
2013-02-14 10:05:00,33.2,31.4,29.90,North,360,6.0,10.0,93,0.00,OVC,OVC,0.01,WeatherDisplay:10.37,2013-02-14 15:05:00,
2013-02-14 10:10:00,33.4,31.3,29.90,North,360,4.1,9.2,92,0.01,OVC,,0.01,WeatherDisplay:10.37,2013-02-14 15:10:00,
2013-02-14 10:15:00,33.5,31.7,29.90,North,360,5.0,12.0,93,0.00,OVC,OVC,0.01,WeatherDisplay:10.37,2013-02-14 15:15:00,
2013-02-14 10:20:00,33.7,31.6,29.90,North,360,6.9,9.2,92,0.00,OVC,,0.01,WeatherDisplay:10.37,2013-02-14 15:20:00,
2013-02-14 10:25:00,33.8,31.7,29.90,North,360,2.0,5.8,92,0.00,OVC,,0.01,WeatherDisplay:10.37,2013-02-14 15:25:00,
2013-02-14 10:30:00,34.0,32.2,29.90,North,360,3.9,5.0,93,0.00,OVC,,0.01,WeatherDisplay:10.37,2013-02-14 15:30:00,
2013-02-14 10:35:00,34.2,32.1,29.89,North,360,5.5,9.2,92,0.00,OVC,,0.01,WeatherDisplay:10.37,2013-02-14 15:35:00,
2013-02-14 10:40:00,34.5,32.4,29.89,North,360,5.6,10.4,92,0.00,OVC,,0.01,WeatherDisplay:10.37,2013-02-14 15:40:00,
2013-02-14 10:45:00,34.7,32.6,29.89,North,360,3.6,9.2,92,0.00,OVC,,0.01,WeatherDisplay:10.37,2013-02-14 15:45:00,
2013-02-14 10:50:00,34.9,32.5,29.89,North,360,4.4,6.9,91,0.00,OVC,,0.01,WeatherDisplay:10.37,2013-02-14 15:50:00,
2013-02-14 10:55:00,35.1,32.7,29.89,North,360,4.8,6.9,91,0.00,OVC,,0.01,WeatherDisplay:10.37,2013-02-14 15:55:00,
2013-02-14 11:00:00,35.2,32.8,29.89,North,360,5.8,10.4,91,0.00,OVC,,0.01,WeatherDisplay:10.37,2013-02-14 16:00:00,
2013-02-14 11:05:00,35.3,32.7,29.89,North,360,5.4,6.0,90,0.00,OVC,,0.01,WeatherDisplay:10.37,2013-02-14 16:05:00,
2013-02-14 11:10:00,35.4,32.8,29.89,North,360,6.0,13.0,90,0.00,OVC,OVC,0.01,WeatherDisplay:10.37,2013-02-14 16:10:00,
2013-02-14 11:15:00,35.6,33.0,29.89,North,360,4.6,7.0,90,0.00,OVC,,0.01,WeatherDisplay:10.37,2013-02-14 16:15:00,
2013-02-14 11:20:00,35.7,33.1,29.89,North,360,5.0,10.4,90,0.00,OVC,,0.01,WeatherDisplay:10.37,2013-02-14 16:20:00,
2013-02-14 11:25:00,35.8,33.2,29.89,North,360,4.7,6.0,90,0.00,OVC,,0.01,WeatherDisplay:10.37,2013-02-14 16:25:00,
2013-02-14 11:30:00,35.9,33.3,29.89,North,360,3.6,13.8,90,0.00,OVC,,0.01,WeatherDisplay:10.37,2013-02-14 16:30:00,
2013-02-14 11:35:00,35.9,33.0,29.89,North,360,6.0,10.4,89,0.00,OVC,,0.01,WeatherDisplay:10.37,2013-02-14 16:35:00,
2013-02-14 11:40:00,35.9,33.0,29.89,North,360,5.3,7.0,89,0.00,OVC,,0.01,WeatherDisplay:10.37,2013-02-14 16:40:00,
2013-02-14 11:45:00,36.0,33.4,29.89,North,360,5.3,12.0,90,0.00,OVC,,0.01,WeatherDisplay:10.37,2013-02-14 16:45:00,
2013-02-14 11:50:00,36.1,33.2,29.88,WSW,246,4.9,11.5,89,0.00,OVC,,0.01,WeatherDisplay:10.37,2013-02-14 16:50:00,
2013-02-14 11:55:00,36.3,33.4,29.88,North,359,9.0,12.0,89,0.00,OVC,OVC,0.01,WeatherDisplay:10.37,2013-02-14 16:55:00,
2013-02-14 12:00:00,36.8,33.9,29.88,North,358,3.0,10.0,89,0.00,RA,RA,0.01,WeatherDisplay:10.37,2013-02-14 17:00:00,
2013-02-14 12:05:00,37.1,33.6,29.88,North,360,9.0,14.0,87,0.01,RA,RA,0.01,WeatherDisplay:10.37,2013-02-14 17:05:00,
2013-02-14 12:10:00,37.4,33.6,29.87,North,0,5.0,12.0,86,0.00,CLR,CLR,0.01,WeatherDisplay:10.37,2013-02-14 17:10:00,
2013-02-14 12:15:00,37.5,33.7,29.87,North,0,8.0,15.0,86,0.00,CLR,CLR,0.01,WeatherDisplay:10.37,2013-02-14 17:15:00,
2013-02-14 12:20:00,37.7,33.6,29.87,North,0,8.0,14.0,85,0.00,CLR,CLR,0.01,WeatherDisplay:10.37,2013-02-14 17:20:00,
2013-02-14 12:25:00,37.7,33.6,29.87,North,0,6.0,10.0,85,0.00,CLR,CLR,0.01,WeatherDisplay:10.37,2013-02-14 17:25:00,
2013-02-14 12:30:00,37.7,33.6,29.87,North,0,9.0,14.0,85,0.00,CLR,CLR,0.01,WeatherDisplay:10.37,2013-02-14 17:30:00,
2013-02-14 12:35:00,37.7,33.6,29.87,North,0,9.0,14.0,85,0.00,CLR,CLR,0.01,WeatherDisplay:10.37,2013-02-14 17:35:00,
2013-02-14 12:40:00,37.7,33.6,29.87,North,0,8.0,15.0,85,0.00,CLR,CLR,0.01,WeatherDisplay:10.37,2013-02-14 17:40:00,
2013-02-14 12:45:00,37.7,33.6,29.86,North,0,5.0,14.0,85,0.00,CLR,CLR,0.01,WeatherDisplay:10.37,2013-02-14 17:45:00,
2013-02-14 12:50:00,37.7,33.6,29.86,North,0,5.0,13.0,85,0.00,CLR,CLR,0.01,WeatherDisplay:10.37,2013-02-14 17:50:00,
2013-02-14 12:55:00,37.8,34.0,29.86,North,0,5.0,15.0,86,0.00,CLR,CLR,0.01,WeatherDisplay:10.37,2013-02-14 17:55:00,
2013-02-14 13:00:00,37.9,34.1,29.86,North,0,3.0,10.0,86,0.00,CLR,CLR,0.01,WeatherDisplay:10.37,2013-02-14 18:00:00,
2013-02-14 13:05:00,38.1,34.3,29.86,North,0,9.0,14.0,86,0.00,CLR,CLR,0.01,WeatherDisplay:10.37,2013-02-14 18:05:00,
2013-02-14 13:10:00,38.2,34.1,29.86,North,0,6.0,15.0,85,0.00,CLR,CLR,0.01,WeatherDisplay:10.37,2013-02-14 18:10:00,
2013-02-14 13:15:00,38.2,34.1,29.86,North,0,9.0,13.0,85,0.00,CLR,CLR,0.01,WeatherDisplay:10.37,2013-02-14 18:15:00,
2013-02-14 13:20:00,38.2,34.1,29.85,North,0,7.0,10.0,85,0.00,CLR,CLR,0.01,WeatherDisplay:10.37,2013-02-14 18:20:00,
2013-02-14 13:25:00,38.2,34.1,29.86,North,0,5.0,12.0,85,0.00,CLR,CLR,0.01,WeatherDisplay:10.37,2013-02-14 18:25:00,
2013-02-14 13:30:00,38.1,34.0,29.85,North,0,5.0,10.0,85,0.00,CLR,CLR,0.01,WeatherDisplay:10.37,2013-02-14 18:30:00,
2013-02-14 13:35:00,38.0,34.2,29.85,North,0,6.0,10.0,86,0.00,CLR,CLR,0.01,WeatherDisplay:10.37,2013-02-14 18:35:00,
2013-02-14 13:40:00,37.8,34.3,29.85,North,0,5.0,12.0,87,0.00,CLR,CLR,0.01,WeatherDisplay:10.37,2013-02-14 18:40:00,
2013-02-14 13:45:00,37.7,34.5,29.85,North,0,7.0,15.0,88,0.00,CLR,CLR,0.01,WeatherDisplay:10.37,2013-02-14 18:45:00,
2013-02-14 13:50:00,37.6,34.7,29.85,North,0,5.0,15.0,89,0.00,CLR,CLR,0.01,WeatherDisplay:10.37,2013-02-14 18:50:00,
2013-02-14 13:55:00,37.6,34.9,29.85,North,0,5.0,10.0,90,0.00,CLR,CLR,0.01,WeatherDisplay:10.37,2013-02-14 18:55:00,
2013-02-14 14:00:00,37.6,34.9,29.85,North,0,6.0,17.0,90,0.00,CLR,CLR,0.01,WeatherDisplay:10.37,2013-02-14 19:00:00,
2013-02-14 14:05:00,37.6,34.7,29.85,North,0,5.0,13.0,89,0.00,CLR,CLR,0.01,WeatherDisplay:10.37,2013-02-14 19:05:00,
2013-02-14 14:10:00,37.6,34.9,29.85,North,0,7.0,11.0,90,0.00,CLR,CLR,0.01,WeatherDisplay:10.37,2013-02-14 19:10:00,
2013-02-14 14:15:00,37.5,34.6,29.85,North,0,6.0,14.0,89,0.00,CLR,CLR,0.01,WeatherDisplay:10.37,2013-02-14 19:15:00,
2013-02-14 14:20:00,37.5,34.8,29.85,North,0,3.0,9.0,90,0.00,CLR,CLR,0.01,WeatherDisplay:10.37,2013-02-14 19:20:00,
2013-02-14 14:25:00,37.5,34.8,29.85,North,0,6.0,13.0,90,0.00,CLR,CLR,0.01,WeatherDisplay:10.37,2013-02-14 19:25:00,
2013-02-14 14:30:00,37.4,35.0,29.85,North,0,5.0,13.0,91,0.00,CLR,CLR,0.01,WeatherDisplay:10.37,2013-02-14 19:30:00,
2013-02-14 14:35:00,37.3,34.9,29.84,North,0,6.0,16.0,91,0.00,CLR,CLR,0.01,WeatherDisplay:10.37,2013-02-14 19:35:00,
2013-02-14 14:40:00,37.1,34.7,29.84,North,0,3.0,12.0,91,0.00,CLR,CLR,0.01,WeatherDisplay:10.37,2013-02-14 19:40:00,
2013-02-14 14:45:00,37.0,34.9,29.84,North,0,6.0,10.0,92,0.00,CLR,CLR,0.01,WeatherDisplay:10.37,2013-02-14 19:45:00,
2013-02-14 14:50:00,37.0,34.9,29.84,North,0,5.0,12.0,92,0.00,CLR,CLR,0.01,WeatherDisplay:10.37,2013-02-14 19:50:00,
2013-02-14 14:55:00,36.9,35.1,29.84,North,0,9.0,16.0,93,0.00,CLR,CLR,0.01,WeatherDisplay:10.37,2013-02-14 19:55:00,
2013-02-14 15:00:00,36.8,35.0,29.84,North,0,7.0,14.0,93,0.00,CLR,CLR,0.01,WeatherDisplay:10.37,2013-02-14 20:00:00,
2013-02-14 15:05:00,36.7,34.9,29.84,North,0,7.0,10.0,93,0.01,RA,RA,0.02,WeatherDisplay:10.37,2013-02-14 20:05:00,
2013-02-14 15:10:00,36.7,34.9,29.84,North,0,3.0,16.0,93,0.01,RA,RA,0.02,WeatherDisplay:10.37,2013-02-14 20:10:00,
2013-02-14 15:15:00,36.6,35.0,29.83,North,0,7.0,11.0,94,0.00,CLR,CLR,0.02,WeatherDisplay:10.37,2013-02-14 20:15:00,
2013-02-14 15:20:00,36.7,35.1,29.83,North,0,6.0,10.0,94,0.00,CLR,CLR,0.02,WeatherDisplay:10.37,2013-02-14 20:20:00,
2013-02-14 15:25:00,36.8,35.2,29.83,North,0,7.0,14.0,94,0.00,CLR,CLR,0.02,WeatherDisplay:10.37,2013-02-14 20:25:00,
2013-02-14 15:30:00,36.9,35.3,29.83,North,0,3.0,10.0,94,0.00,CLR,CLR,0.02,WeatherDisplay:10.37,2013-02-14 20:30:00,
2013-02-14 15:35:00,37.0,35.2,29.83,North,0,6.0,15.0,93,0.00,CLR,CLR,0.02,WeatherDisplay:10.37,2013-02-14 20:35:00,
2013-02-14 15:40:00,37.1,35.3,29.83,North,0,6.0,10.0,93,0.00,CLR,CLR,0.02,WeatherDisplay:10.37,2013-02-14 20:40:00,
2013-02-14 15:45:00,37.1,35.3,29.83,North,0,7.0,13.0,93,0.00,CLR,CLR,0.02,WeatherDisplay:10.37,2013-02-14 20:45:00,
2013-02-14 15:50:00,37.2,35.1,29.83,North,0,7.0,12.0,92,0.00,CLR,CLR,0.02,WeatherDisplay:10.37,2013-02-14 20:50:00,
2013-02-14 15:55:00,37.2,35.1,29.83,North,0,3.0,14.0,92,0.00,CLR,CLR,0.02,WeatherDisplay:10.37,2013-02-14 20:55:00,
2013-02-14 16:00:00,37.3,35.2,29.83,North,0,5.0,9.0,92,0.00,CLR,CLR,0.02,WeatherDisplay:10.37,2013-02-14 21:00:00,
2013-02-14 16:05:00,37.2,35.1,29.83,North,0,3.0,13.0,92,0.00,CLR,CLR,0.02,WeatherDisplay:10.37,2013-02-14 21:05:00,
2013-02-14 16:10:00,37.2,35.1,29.83,North,0,6.0,13.0,92,0.00,CLR,CLR,0.02,WeatherDisplay:10.37,2013-02-14 21:10:00,
2013-02-14 16:15:00,37.3,34.9,29.83,North,0,6.0,14.0,91,0.00,CLR,CLR,0.02,WeatherDisplay:10.37,2013-02-14 21:15:00,
2013-02-14 16:20:00,37.3,34.9,29.83,North,0,6.0,14.0,91,0.00,CLR,CLR,0.02,WeatherDisplay:10.37,2013-02-14 21:20:00,
2013-02-14 16:25:00,37.2,34.8,29.83,North,0,7.0,13.0,91,0.00,CLR,CLR,0.02,WeatherDisplay:10.37,2013-02-14 21:25:00,
2013-02-14 16:30:00,37.3,34.9,29.83,North,0,8.0,14.0,91,0.00,CLR,CLR,0.02,WeatherDisplay:10.37,2013-02-14 21:30:00,
2013-02-14 16:35:00,37.3,34.6,29.83,North,0,6.0,12.0,90,0.00,CLR,CLR,0.02,WeatherDisplay:10.37,2013-02-14 21:35:00,
2013-02-14 16:40:00,37.3,34.6,29.84,North,0,3.0,13.0,90,0.00,CLR,CLR,0.02,WeatherDisplay:10.37,2013-02-14 21:40:00,
2013-02-14 16:45:00,37.3,34.6,29.84,North,0,6.0,10.0,90,0.00,CLR,CLR,0.02,WeatherDisplay:10.37,2013-02-14 21:45:00,
2013-02-14 16:50:00,37.3,34.6,29.84,North,0,7.0,14.0,90,0.00,CLR,CLR,0.02,WeatherDisplay:10.37,2013-02-14 21:50:00,
2013-02-14 16:55:00,37.3,34.4,29.84,North,0,5.0,12.0,89,0.00,CLR,CLR,0.02,WeatherDisplay:10.37,2013-02-14 21:55:00,
2013-02-14 17:00:00,37.2,34.3,29.84,North,0,5.0,10.0,89,0.00,CLR,CLR,0.02,WeatherDisplay:10.37,2013-02-14 22:00:00,
2013-02-14 17:05:00,37.1,34.2,29.84,North,0,8.0,15.0,89,0.00,CLR,CLR,0.02,WeatherDisplay:10.37,2013-02-14 22:05:00,
2013-02-14 17:10:00,36.9,34.2,29.83,North,0,6.0,14.0,90,0.00,CLR,CLR,0.02,WeatherDisplay:10.37,2013-02-14 22:10:00,
2013-02-14 17:15:00,36.8,34.1,29.84,North,0,5.0,11.0,90,0.00,CLR,CLR,0.02,WeatherDisplay:10.37,2013-02-14 22:15:00,
2013-02-14 17:20:00,36.7,34.3,29.85,North,0,7.0,17.0,91,0.00,CLR,CLR,0.02,WeatherDisplay:10.37,2013-02-14 22:20:00,
2013-02-14 17:25:00,36.6,34.2,29.84,North,0,6.0,14.0,91,0.00,CLR,CLR,0.02,WeatherDisplay:10.37,2013-02-14 22:25:00,
2013-02-14 17:30:00,36.5,34.1,29.84,North,0,7.0,14.0,91,0.00,CLR,CLR,0.02,WeatherDisplay:10.37,2013-02-14 22:30:00,
2013-02-14 17:35:00,36.5,34.1,29.84,North,0,5.0,14.0,91,0.00,CLR,CLR,0.02,WeatherDisplay:10.37,2013-02-14 22:35:00,
2013-02-14 17:40:00,36.4,34.0,29.84,North,0,7.0,9.0,91,0.00,CLR,CLR,0.02,WeatherDisplay:10.37,2013-02-14 22:40:00,
2013-02-14 17:45:00,36.3,33.9,29.84,North,0,6.0,11.0,91,0.00,CLR,CLR,0.02,WeatherDisplay:10.37,2013-02-14 22:45:00,
2013-02-14 17:50:00,36.3,34.2,29.84,North,0,3.0,18.0,92,0.00,CLR,CLR,0.02,WeatherDisplay:10.37,2013-02-14 22:50:00,
2013-02-14 17:55:00,36.2,34.1,29.84,North,0,8.0,14.0,92,0.00,CLR,CLR,0.02,WeatherDisplay:10.37,2013-02-14 22:55:00,
2013-02-14 18:00:00,36.2,34.1,29.84,North,357,7.0,11.0,92,0.00,CLR,CLR,0.02,WeatherDisplay:10.37,2013-02-14 23:00:00,
2013-02-14 18:05:00,36.3,34.2,29.85,WNW,284,5.0,13.0,92,0.00,CLR,CLR,0.02,WeatherDisplay:10.37,2013-02-14 23:05:00,
2013-02-14 18:10:00,36.4,34.3,29.86,SW,223,6.0,16.0,92,0.00,CLR,CLR,0.02,WeatherDisplay:10.37,2013-02-14 23:10:00,
2013-02-14 18:15:00,36.4,34.3,29.86,SW,225,6.0,11.0,92,0.00,CLR,CLR,0.02,WeatherDisplay:10.37,2013-02-14 23:15:00,
2013-02-14 18:20:00,36.4,34.3,29.86,SW,225,3.0,13.0,92,0.00,CLR,CLR,0.02,WeatherDisplay:10.37,2013-02-14 23:20:00,
2013-02-14 18:25:00,36.5,34.4,29.87,SW,222,6.0,12.0,92,0.00,CLR,CLR,0.02,WeatherDisplay:10.37,2013-02-14 23:25:00,
2013-02-14 18:30:00,36.5,34.4,29.86,SW,224,6.0,13.0,92,0.00,CLR,CLR,0.02,WeatherDisplay:10.37,2013-02-14 23:30:00,
2013-02-14 18:35:00,36.6,34.5,29.86,SW,224,5.0,10.0,92,0.00,CLR,CLR,0.02,WeatherDisplay:10.37,2013-02-14 23:35:00,
2013-02-14 18:40:00,36.6,34.5,29.86,SW,218,3.0,13.0,92,0.00,CLR,CLR,0.02,WeatherDisplay:10.37,2013-02-14 23:40:00,
2013-02-14 18:45:00,36.6,34.5,29.86,SSW,211,3.0,8.0,92,0.00,CLR,CLR,0.02,WeatherDisplay:10.37,2013-02-14 23:45:00,
2013-02-14 18:50:00,36.6,34.5,29.86,SSW,208,3.0,11.0,92,0.00,CLR,CLR,0.02,WeatherDisplay:10.37,2013-02-14 23:50:00,
2013-02-14 18:55:00,36.6,34.5,29.86,SSW,209,8.0,13.0,92,0.00,CLR,CLR,0.02,WeatherDisplay:10.37,2013-02-14 23:55:00,
2013-02-14 19:00:00,36.7,34.6,29.86,SSW,206,5.0,10.0,92,0.00,CLR,CLR,0.02,WeatherDisplay:10.37,2013-02-15 00:00:00,
2013-02-14 19:05:00,36.8,34.7,29.86,SSW,204,3.0,13.0,92,0.00,CLR,CLR,0.02,WeatherDisplay:10.37,2013-02-15 00:05:00,
2013-02-14 19:10:00,36.9,34.8,29.86,SSW,199,8.0,11.0,92,0.00,CLR,CLR,0.02,WeatherDisplay:10.37,2013-02-15 00:10:00,
2013-02-14 19:15:00,37.0,34.9,29.85,SSW,204,3.0,11.0,92,0.00,CLR,CLR,0.02,WeatherDisplay:10.37,2013-02-15 00:15:00,
2013-02-14 19:20:00,36.9,34.8,29.85,SSW,203,7.0,12.0,92,0.00,CLR,CLR,0.02,WeatherDisplay:10.37,2013-02-15 00:20:00,
2013-02-14 19:25:00,37.0,34.9,29.85,South,191,3.0,12.0,92,0.00,CLR,CLR,0.02,WeatherDisplay:10.37,2013-02-15 00:25:00,
2013-02-14 19:30:00,37.1,35.0,29.85,SSW,195,3.0,9.0,92,0.00,CLR,CLR,0.02,WeatherDisplay:10.37,2013-02-15 00:30:00,
2013-02-14 19:35:00,37.1,35.0,29.85,SSW,205,3.0,9.0,92,0.00,CLR,CLR,0.02,WeatherDisplay:10.37,2013-02-15 00:35:00,
2013-02-14 19:40:00,37.2,35.1,29.85,SSW,206,3.0,9.0,92,0.00,CLR,CLR,0.02,WeatherDisplay:10.37,2013-02-15 00:40:00,
2013-02-14 19:45:00,37.3,35.2,29.85,SSW,196,6.0,13.0,92,0.00,CLR,CLR,0.02,WeatherDisplay:10.37,2013-02-15 00:45:00,
2013-02-14 19:50:00,37.3,35.2,29.85,SSW,192,5.0,10.0,92,0.00,CLR,CLR,0.02,WeatherDisplay:10.37,2013-02-15 00:50:00,
2013-02-14 19:55:00,37.4,35.3,29.85,SSW,203,6.0,11.0,92,0.00,CLR,CLR,0.02,WeatherDisplay:10.37,2013-02-15 00:55:00,
2013-02-14 20:00:00,37.5,35.1,29.84,SSW,201,5.0,11.0,91,0.00,CLR,CLR,0.02,WeatherDisplay:10.37,2013-02-15 01:00:00,
2013-02-14 20:05:00,37.5,35.1,29.85,SSW,193,3.0,8.0,91,0.00,CLR,CLR,0.02,WeatherDisplay:10.37,2013-02-15 01:05:00,
2013-02-14 20:10:00,37.5,35.1,29.84,SSW,203,5.0,9.0,91,0.01,RA,RA,0.03,WeatherDisplay:10.37,2013-02-15 01:10:00,
2013-02-14 20:15:00,37.5,35.4,29.84,SSW,205,5.0,9.0,92,0.01,RA,RA,0.03,WeatherDisplay:10.37,2013-02-15 01:15:00,
2013-02-14 20:20:00,37.5,35.4,29.84,SSW,197,3.0,11.0,92,0.00,CLR,CLR,0.03,WeatherDisplay:10.37,2013-02-15 01:20:00,
2013-02-14 20:25:00,37.6,35.5,29.84,SSW,198,5.0,11.0,92,0.00,CLR,CLR,0.03,WeatherDisplay:10.37,2013-02-15 01:25:00,
2013-02-14 20:30:00,37.5,35.4,29.84,SSW,200,3.0,8.0,92,0.00,CLR,CLR,0.03,WeatherDisplay:10.37,2013-02-15 01:30:00,
2013-02-14 20:35:00,37.5,35.4,29.84,SSW,194,5.0,9.0,92,0.00,CLR,CLR,0.03,WeatherDisplay:10.37,2013-02-15 01:35:00,
2013-02-14 20:40:00,37.6,35.5,29.84,SSW,193,6.0,8.0,92,0.00,CLR,CLR,0.03,WeatherDisplay:10.37,2013-02-15 01:40:00,
2013-02-14 20:45:00,37.7,35.6,29.84,South,190,8.0,13.0,92,0.00,CLR,CLR,0.03,WeatherDisplay:10.37,2013-02-15 01:45:00,
2013-02-14 20:50:00,37.9,35.8,29.83,South,188,5.0,13.0,92,0.00,CLR,CLR,0.03,WeatherDisplay:10.37,2013-02-15 01:50:00,
2013-02-14 20:55:00,38.0,35.9,29.84,SSW,194,5.0,11.0,92,0.00,CLR,CLR,0.03,WeatherDisplay:10.37,2013-02-15 01:55:00,
2013-02-14 21:00:00,38.1,36.0,29.84,SSW,200,10.0,15.0,92,0.00,CLR,CLR,0.03,WeatherDisplay:10.37,2013-02-15 02:00:00,
2013-02-14 21:05:00,38.3,35.9,29.85,SSW,202,2.0,12.0,91,0.00,CLR,CLR,0.03,WeatherDisplay:10.37,2013-02-15 02:05:00,
2013-02-14 21:10:00,38.4,36.3,29.85,SSW,212,12.0,17.0,92,0.00,CLR,CLR,0.03,WeatherDisplay:10.37,2013-02-15 02:10:00,
2013-02-14 21:15:00,38.8,36.4,29.85,SW,233,3.0,13.0,91,0.00,CLR,CLR,0.03,WeatherDisplay:10.37,2013-02-15 02:15:00,
2013-02-14 21:20:00,38.9,36.2,29.85,WSW,242,5.0,12.0,90,0.00,CLR,CLR,0.03,WeatherDisplay:10.37,2013-02-15 02:20:00,
2013-02-14 21:25:00,39.0,36.3,29.85,SW,232,7.0,11.0,90,0.00,CLR,CLR,0.03,WeatherDisplay:10.37,2013-02-15 02:25:00,
2013-02-14 21:30:00,39.1,36.4,29.85,SW,234,5.0,11.0,90,0.00,CLR,CLR,0.03,WeatherDisplay:10.37,2013-02-15 02:30:00,
2013-02-14 21:35:00,39.1,36.4,29.85,WSW,242,7.0,11.0,90,0.00,CLR,CLR,0.03,WeatherDisplay:10.37,2013-02-15 02:35:00,
2013-02-14 21:40:00,39.1,36.4,29.85,WSW,251,3.0,14.0,90,0.00,CLR,CLR,0.03,WeatherDisplay:10.37,2013-02-15 02:40:00,
2013-02-14 21:45:00,39.2,36.5,29.85,WSW,251,5.0,11.0,90,0.00,CLR,CLR,0.03,WeatherDisplay:10.37,2013-02-15 02:45:00,
2013-02-14 21:50:00,39.2,36.5,29.85,WSW,251,5.0,11.0,90,0.00,CLR,CLR,0.03,WeatherDisplay:10.37,2013-02-15 02:50:00,
2013-02-14 21:55:00,39.3,36.6,29.86,WSW,252,3.0,14.0,90,0.00,CLR,CLR,0.03,WeatherDisplay:10.37,2013-02-15 02:55:00,
2013-02-14 22:00:00,39.4,36.7,29.86,WSW,251,8.0,13.0,90,0.00,CLR,CLR,0.03,WeatherDisplay:10.37,2013-02-15 03:00:00,
2013-02-14 22:05:00,39.5,36.5,29.86,WSW,252,6.0,12.0,89,0.00,CLR,CLR,0.03,WeatherDisplay:10.37,2013-02-15 03:05:00,
2013-02-14 22:10:00,39.5,36.5,29.86,West,261,5.0,10.0,89,0.00,CLR,CLR,0.03,WeatherDisplay:10.37,2013-02-15 03:10:00,
2013-02-14 22:21:00,39.5,36.5,29.86,NW,316,8.0,8.1,89,0.00,RA,,0.03,WeatherDisplay:10.37,2013-02-15 03:21:00,
2013-02-14 22:26:00,39.5,36.5,29.86,West,267,9.0,9.0,89,0.00,RA,,0.03,WeatherDisplay:10.37,2013-02-15 03:26:00,
2013-02-14 22:31:00,39.4,35.6,29.87,SW,231,12.0,16.1,86,0.00,OVC,,0.03,WeatherDisplay:10.37,2013-02-15 03:31:00,
2013-02-14 22:36:00,39.3,34.6,29.87,West,269,9.5,15.0,83,0.00,OVC,,0.03,WeatherDisplay:10.37,2013-02-15 03:36:00,
2013-02-14 22:41:00,39.2,34.5,29.87,WNW,286,10.9,21.9,83,0.00,OVC,,0.03,WeatherDisplay:10.37,2013-02-15 03:41:00,
2013-02-14 22:46:00,39.0,34.0,29.87,WSW,237,6.4,9.2,82,0.00,OVC,,0.03,WeatherDisplay:10.37,2013-02-15 03:46:00,
2013-02-14 22:51:00,38.9,33.6,29.88,NW,313,5.3,11.5,81,0.00,OVC,,0.03,WeatherDisplay:10.37,2013-02-15 03:51:00,
2013-02-14 22:56:00,38.8,33.8,29.88,North,351,6.7,9.0,82,0.00,OVC,,0.03,WeatherDisplay:10.37,2013-02-15 03:56:00,
2013-02-14 23:01:00,38.6,33.6,29.88,NW,320,9.7,19.6,82,0.00,OVC,,0.03,WeatherDisplay:10.37,2013-02-15 04:01:00,
2013-02-14 23:06:00,38.4,33.1,29.88,NW,319,7.8,11.5,81,0.00,OVC,,0.03,WeatherDisplay:10.37,2013-02-15 04:06:00,
2013-02-14 23:11:00,38.2,32.6,29.88,NW,321,11.6,15.0,80,0.00,OVC,,0.03,WeatherDisplay:10.37,2013-02-15 04:11:00,
2013-02-14 23:16:00,37.9,32.0,29.88,WNW,295,8.0,18.4,79,0.00,OVC,,0.03,WeatherDisplay:10.37,2013-02-15 04:16:00,
2013-02-14 23:21:00,37.7,31.8,29.88,West,273,10.4,21.9,79,0.00,OVC,,0.03,WeatherDisplay:10.37,2013-02-15 04:21:00,
2013-02-14 23:26:00,37.6,31.7,29.89,WSW,254,7.3,13.0,79,0.00,OVC,,0.03,WeatherDisplay:10.37,2013-02-15 04:26:00,
2013-02-14 23:31:00,37.5,31.3,29.89,WSW,247,7.5,11.5,78,0.00,OVC,,0.03,WeatherDisplay:10.37,2013-02-15 04:31:00,
2013-02-14 23:36:00,37.2,31.0,29.89,NNW,333,9.0,12.7,78,0.00,OVC,,0.03,WeatherDisplay:10.37,2013-02-15 04:36:00,
2013-02-14 23:41:00,37.1,30.9,29.89,West,270,8.2,13.8,78,0.00,OVC,,0.03,WeatherDisplay:10.37,2013-02-15 04:41:00,
2013-02-14 23:46:00,37.0,30.8,29.90,NW,306,10.9,12.7,78,0.00,OVC,,0.03,WeatherDisplay:10.37,2013-02-15 04:46:00,
2013-02-14 23:51:00,37.0,30.8,29.89,WSW,251,8.1,11.5,78,0.00,OVC,,0.03,WeatherDisplay:10.37,2013-02-15 04:51:00,
2013-02-14 23:56:00,37.0,30.8,29.90,West,265,6.6,12.7,78,0.00,OVC,,0.03,WeatherDisplay:10.37,2013-02-15 04:56:00,